Time;durP1;ratioP1;P1;durP2;ratioP2;P2;SDS_P1;SDS_P2;PMS_P1;PMS_P2;Temp;Humidity;BMP_temperature;BMP_pressure;BME280_temperature;BME280_humidity;BME280_pressure;Samples;Min_cycle;Max_cycle;Signal;HPM_P1;HPM_P2
2022/08/23 00:01:47;;;;;;;34.45;22.20;;;;;;;22.68;47.66;100366.00;5028620;28;20123;-49
2022/08/23 00:04:19;;;;;;;39.20;21.95;;;;;;;22.68;47.48;100368.66;5029848;28;20087;-52
2022/08/23 00:06:46;;;;;;;36.70;20.92;;;;;;;22.67;47.44;100370.47;5036446;28;20103;-52
2022/08/23 00:09:13;;;;;;;34.38;21.23;;;;;;;22.68;47.22;100373.97;5028698;28;20107;-49
2022/08/23 00:11:48;;;;;;;34.35;21.38;;;;;;;22.65;47.59;100367.09;5046904;28;20080;-47
2022/08/23 00:14:26;;;;;;;41.92;22.73;;;;;;;22.64;47.64;100377.81;5050702;28;20483;-48
2022/08/23 00:16:52;;;;;;;35.28;21.77;;;;;;;22.62;47.60;100374.41;5018128;28;20041;-51
2022/08/23 00:19:20;;;;;;;34.50;20.52;;;;;;;22.58;47.78;100375.59;5018637;28;20047;-48
2022/08/23 00:21:47;;;;;;;35.25;21.30;;;;;;;22.55;47.68;100371.38;5032341;28;20041;-52
2022/08/23 00:24:14;;;;;;;34.30;21.90;;;;;;;22.55;47.69;100374.03;5031912;28;20048;-48
2022/08/23 00:27:06;;;;;;;30.17;20.77;;;;;;;22.53;47.64;100373.28;5037208;28;20085;-52
2022/08/23 00:29:49;;;;;;;29.42;19.95;;;;;;;22.51;47.62;100383.13;5021145;28;20064;-48
2022/08/23 00:32:25;;;;;;;34.25;20.80;;;;;;;22.50;47.77;100384.13;5032609;28;20485;-51
2022/08/23 00:34:51;;;;;;;33.20;21.55;;;;;;;22.47;47.79;100383.47;5030580;28;20044;-48
2022/08/23 00:37:18;;;;;;;31.02;20.55;;;;;;;22.45;47.93;100383.59;5032613;28;20067;-47
2022/08/23 00:39:44;;;;;;;29.95;20.13;;;;;;;22.43;47.93;100385.50;5046856;28;20048;-49
2022/08/23 00:48:06;;;;;;;32.40;20.40;;;;;;;22.33;48.15;100387.13;5039016;28;20124;-50
2022/08/23 00:50:53;;;;;;;28.65;20.58;;;;;;;22.28;48.34;100392.75;5032625;28;20079;-48
2022/08/23 00:53:25;;;;;;;29.15;19.73;;;;;;;22.23;48.62;100394.91;5032727;28;20095;-51
2022/08/23 00:55:54;;;;;;;30.27;20.45;;;;;;;22.19;48.70;100395.22;5033838;28;20081;-50
2022/08/23 00:58:20;;;;;;;29.77;20.80;;;;;;;22.16;48.75;100396.28;5014874;28;20508;-48
2022/08/23 01:00:48;;;;;;;32.47;21.27;;;;;;;22.14;49.05;100392.06;5031887;28;20079;-47
2022/08/23 01:03:15;;;;;;;33.03;21.10;;;;;;;22.08;49.15;100396.00;5022976;28;21224;-46
2022/08/23 01:05:51;;;;;;;29.02;20.65;;;;;;;22.09;49.18;100402.09;5030572;28;20041;-50
2022/08/23 01:08:18;;;;;;;28.25;20.98;;;;;;;22.06;49.50;100397.03;5030478;28;20067;-47
2022/08/23 01:10:57;;;;;;;32.05;20.40;;;;;;;22.04;49.75;100405.06;5014578;28;20072;-53
2022/08/23 01:13:29;;;;;;;29.88;20.40;;;;;;;22.01;49.59;100401.81;5029892;28;20698;-51
2022/08/23 01:16:04;;;;;;;34.25;21.50;;;;;;;21.99;49.63;100412.50;5031355;28;20699;-50
2022/08/23 01:18:30;;;;;;;33.25;21.38;;;;;;;21.94;49.64;100396.09;5030886;28;20087;-46
2022/08/23 01:21:08;;;;;;;27.88;19.70;;;;;;;21.98;50.03;100415.28;5036788;28;20491;-50
2022/08/23 01:23:46;;;;;;;30.27;20.70;;;;;;;21.84;50.01;100398.50;5041499;28;20041;-49
2022/08/23 01:26:17;;;;;;;29.10;20.83;;;;;;;21.96;49.75;100412.72;5040533;28;20530;-48
2022/08/23 01:28:43;;;;;;;31.15;20.58;;;;;;;21.93;49.64;100416.38;5014640;28;20053;-47
2022/08/23 01:31:10;;;;;;;30.27;20.35;;;;;;;21.94;49.61;100426.06;5025695;28;20143;-52
2022/08/23 01:33:37;;;;;;;34.58;21.00;;;;;;;21.79;49.70;100403.28;5022360;28;20083;-51
2022/08/23 01:36:04;;;;;;;28.83;20.58;;;;;;;21.93;49.63;100421.69;5031258;28;20041;-50
2022/08/23 01:38:30;;;;;;;33.17;20.70;;;;;;;21.92;49.91;100420.00;5014415;28;20043;-47
2022/08/23 01:40:56;;;;;;;30.83;20.05;;;;;;;21.91;49.77;100422.75;5031254;28;20087;-49
2022/08/23 01:43:22;;;;;;;31.38;19.70;;;;;;;21.72;49.92;100398.53;5030399;28;20525;-48
2022/08/23 01:45:52;;;;;;;29.48;20.52;;;;;;;21.88;50.04;100431.75;5029997;28;20045;-49
2022/08/23 01:48:20;;;;;;;;;;;;;;;21.85;50.12;100431.13;5014506;28;20421;-52
2022/08/23 01:50:46;;;;;;;29.13;19.45;;;;;;;21.80;50.10;100435.88;5029656;28;19921;-51
2022/08/23 01:53:13;;;;;;;34.95;20.35;;;;;;;21.77;50.27;100428.16;5046595;28;20551;-49
2022/08/23 01:55:45;;;;;;;35.05;20.08;;;;;;;21.75;50.23;100432.72;5028772;28;20127;-52
2022/08/23 01:58:10;;;;;;;29.50;18.83;;;;;;;21.71;50.46;100433.88;5030030;28;20148;-47
2022/08/23 02:00:41;;;;;;;30.97;19.70;;;;;;;21.66;50.66;100431.56;5037210;28;20049;-48
2022/08/23 02:03:08;;;;;;;30.02;19.98;;;;;;;21.65;51.01;100432.50;5028644;28;20080;-47
2022/08/23 02:05:36;;;;;;;30.27;20.08;;;;;;;21.63;50.92;100430.88;5030701;28;20057;-47
2022/08/23 02:10:51;;;;;;;;;;;;;;;21.55;51.20;100434.06;5046822;28;20579;-52
2022/08/23 02:13:17;;;;;;;30.90;20.10;;;;;;;21.49;51.06;100437.97;5013355;28;19923;-48
2022/08/23 02:15:45;;;;;;;34.10;20.60;;;;;;;21.33;51.30;100417.94;5029257;28;20075;-49
2022/08/23 02:18:12;;;;;;;35.22;21.20;;;;;;;21.17;51.54;100394.31;5029738;28;20131;-50
2022/08/23 02:20:43;;;;;;;30.60;20.27;;;;;;;21.23;51.68;100407.13;5033601;28;20138;-51
2022/08/23 02:23:09;;;;;;;31.05;19.25;;;;;;;21.37;51.67;100438.78;5029371;28;20095;-51
2022/08/23 02:25:35;;;;;;;29.88;19.45;;;;;;;21.35;51.80;100442.50;5030589;28;20041;-48
2022/08/23 02:28:02;;;;;;;29.92;20.48;;;;;;;21.34;51.85;100446.09;5029106;28;20093;-47
2022/08/23 02:30:27;;;;;;;34.58;20.48;;;;;;;21.30;52.07;100441.97;5033365;28;20040;-48
2022/08/23 02:32:55;;;;;;;33.88;19.67;;;;;;;21.26;52.12;100441.31;5060667;28;20079;-49
2022/08/23 02:35:21;;;;;;;33.05;20.88;;;;;;;21.26;52.17;100453.69;5029339;28;20050;-48
2022/08/23 02:37:48;;;;;;;29.45;19.55;;;;;;;21.23;52.18;100443.31;5012391;28;20098;-49
2022/08/23 02:40:14;;;;;;;33.42;19.98;;;;;;;21.21;52.37;100446.06;5030863;28;20127;-50
2022/08/23 02:42:40;;;;;;;30.67;20.23;;;;;;;20.94;52.31;100397.59;5042917;28;20228;-51
2022/08/23 02:45:07;;;;;;;32.38;20.00;;;;;;;21.21;52.43;100450.50;5030312;28;20045;-49
2022/08/23 02:47:36;;;;;;;35.65;21.05;;;;;;;21.19;52.72;100447.97;5045717;28;20425;-54
2022/08/23 02:50:13;;;;;;;31.65;19.67;;;;;;;21.18;52.84;100445.41;5030318;28;20499;-51
2022/08/23 02:52:39;;;;;;;33.92;21.33;;;;;;;21.19;52.93;100453.25;5030912;28;20124;-49
2022/08/23 02:55:06;;;;;;;32.88;20.42;;;;;;;21.03;52.95;100426.09;5030709;28;20071;-48
2022/08/23 02:57:32;;;;;;;34.58;20.20;;;;;;;21.03;53.06;100428.75;5029421;28;20505;-53
2022/08/23 03:00:01;;;;;;;36.38;20.50;;;;;;;21.18;52.99;100454.19;5028398;28;20049;-52
2022/08/23 03:02:28;;;;;;;32.25;19.85;;;;;;;21.18;52.95;100454.19;5030137;28;20116;-50
2022/08/23 03:04:53;;;;;;;33.65;20.10;;;;;;;21.18;53.12;100454.19;5028460;28;20135;-48
2022/08/23 03:07:19;;;;;;;31.67;20.23;;;;;;;21.19;53.35;100458.56;5035962;28;20038;-50
2022/08/23 03:09:45;;;;;;;34.22;19.90;;;;;;;21.19;53.32;100461.19;5028297;28;20049;-49
2022/08/23 03:12:11;;;;;;;32.15;19.25;;;;;;;21.15;53.66;100446.44;5030374;28;20044;-47
2022/08/23 03:14:42;;;;;;;39.65;19.42;;;;;;;21.23;53.60;100453.91;5036502;28;20132;-48
2022/08/23 03:17:08;;;;;;;31.33;19.23;;;;;;;21.23;53.72;100465.31;5028583;28;20121;-49
2022/08/23 03:19:34;;;;;;;38.35;20.35;;;;;;;21.22;53.78;100463.63;5028806;28;20123;-48
2022/08/23 03:22:00;;;;;;;32.85;19.85;;;;;;;21.24;53.96;100466.19;5028408;28;20120;-49
2022/08/23 03:24:25;;;;;;;33.28;20.42;;;;;;;21.28;53.95;100462.38;5033870;28;20068;-50
2022/08/23 03:26:52;;;;;;;30.88;19.60;;;;;;;21.29;54.01;100469.38;5013496;28;20084;-48
2022/08/23 03:29:18;;;;;;;33.83;19.90;;;;;;;21.23;54.03;100462.69;5026504;28;20583;-48
2022/08/23 03:32:05;;;;;;;34.20;20.90;;;;;;;21.36;54.10;100478.56;5029640;28;20056;-51
2022/08/23 03:34:39;;;;;;;37.10;21.52;;;;;;;21.39;53.82;100479.25;5029113;28;20111;-50
2022/08/23 03:37:08;;;;;;;32.45;21.27;;;;;;;21.42;53.88;100483.47;5028457;28;20041;-50
2022/08/23 03:39:34;;;;;;;37.92;22.30;;;;;;;21.45;53.54;100485.91;5022964;28;20084;-49
2022/08/23 03:42:00;;;;;;;35.78;22.38;;;;;;;21.47;53.51;100487.50;5026405;28;20616;-47
2022/08/23 03:44:30;;;;;;;33.45;20.33;;;;;;;21.50;53.42;100489.09;5029226;28;20107;-48
2022/08/23 03:46:55;;;;;;;32.78;20.17;;;;;;;21.53;53.29;100489.75;5027879;28;20045;-50
2022/08/23 03:49:21;;;;;;;33.22;20.65;;;;;;;21.57;53.49;100490.38;5030869;28;20045;-48
2022/08/23 03:51:51;;;;;;;30.92;20.08;;;;;;;21.61;53.21;100486.59;5033437;28;20060;-50
2022/08/23 03:54:17;;;;;;;38.38;21.95;;;;;;;21.64;53.30;100490.81;5034622;28;20502;-48
2022/08/23 03:56:58;;;;;;;34.72;21.80;;;;;;;21.67;53.35;100493.28;5032585;28;20166;-49
2022/08/23 03:59:25;;;;;;;33.53;20.10;;;;;;;21.70;53.34;100501.84;5032438;28;20045;-51
2022/08/23 04:01:51;;;;;;;33.55;20.02;;;;;;;21.62;53.17;100474.19;5031385;28;20049;-50
2022/08/23 04:04:17;;;;;;;32.60;20.67;;;;;;;21.76;53.32;100498.78;5033649;28;20149;-47
2022/08/23 04:07:03;;;;;;;35.20;20.35;;;;;;;21.77;53.15;100500.47;5032043;28;20046;-51
2022/08/23 04:09:29;;;;;;;34.05;19.98;;;;;;;21.81;53.20;100501.13;5025255;28;20072;-53
2022/08/23 04:11:56;;;;;;;31.95;19.67;;;;;;;21.64;53.26;100472.28;5048676;28;20045;-52
2022/08/23 04:14:23;;;;;;;32.25;20.08;;;;;;;21.87;53.22;100501.56;5043033;28;20049;-52
2022/08/23 04:16:49;;;;;;;32.20;18.55;;;;;;;21.82;53.40;100493.09;5052227;28;20554;-49
2022/08/23 04:19:16;;;;;;;28.88;19.40;;;;;;;21.95;53.60;100512.50;5031927;28;20049;-49
2022/08/23 04:21:57;;;;;;;36.20;19.45;;;;;;;22.02;53.50;100505.00;5031573;28;20091;-50
2022/08/23 04:24:25;;;;;;;28.92;19.38;;;;;;;22.07;53.40;100512.63;5032871;28;20041;-51
2022/08/23 04:26:51;;;;;;;34.78;19.05;;;;;;;22.10;53.44;100505.31;5031630;28;20049;-50
2022/08/23 04:29:17;;;;;;;34.50;19.58;;;;;;;22.14;53.18;100511.25;5031130;28;20084;-50
2022/08/23 04:31:45;;;;;;;42.53;20.42;;;;;;;22.20;53.05;100516.97;5029744;28;20037;-51
2022/08/23 04:34:11;;;;;;;32.47;18.27;;;;;;;22.26;53.19;100523.63;5040345;28;20067;-48
2022/08/23 04:36:40;;;;;;;34.45;19.65;;;;;;;22.31;53.15;100517.06;5053310;28;20512;-49
2022/08/23 04:39:06;;;;;;;38.88;20.00;;;;;;;22.38;52.98;100518.34;5053181;28;20106;-49
2022/08/23 04:44:17;;;;;;;36.75;19.13;;;;;;;22.49;52.93;100522.88;5048374;28;20464;-50
2022/08/23 04:46:47;;;;;;;33.50;19.83;;;;;;;22.42;52.65;100503.06;5031128;28;20103;-48
2022/08/23 04:49:14;;;;;;;32.40;18.17;;;;;;;22.58;52.68;100518.72;5032995;28;20291;-48
2022/08/23 04:51:40;;;;;;;31.40;18.80;;;;;;;22.71;52.49;100530.22;5031866;28;20209;-46
2022/08/23 04:54:09;;;;;;;47.95;20.48;;;;;;;22.80;52.48;100529.53;5030795;28;20128;-51
2022/08/23 04:56:41;;;;;;;36.45;17.35;;;;;;;22.87;52.27;100525.50;5031167;28;20472;-49
2022/08/23 04:59:08;;;;;;;27.27;17.73;;;;;;;23.00;52.27;100528.09;5031146;28;20441;-48
2022/08/23 05:01:35;;;;;;;29.13;17.63;;;;;;;22.84;52.08;100482.44;5031310;28;20056;-53
2022/08/23 05:04:02;;;;;;;25.15;16.80;;;;;;;23.20;52.14;100530.16;5037977;28;20045;-51
2022/08/23 05:06:28;;;;;;;26.55;16.67;;;;;;;23.29;52.05;100528.66;5049346;28;20045;-50
2022/08/23 05:08:54;;;;;;;32.35;18.98;;;;;;;23.40;51.84;100531.34;5032892;28;20513;-49
2022/08/23 05:11:21;;;;;;;32.65;18.35;;;;;;;23.41;51.53;100510.00;5054500;28;20132;-51
2022/08/23 05:13:48;;;;;;;30.55;17.80;;;;;;;23.50;51.66;100506.69;5053149;28;20060;-49
2022/08/23 05:16:15;;;;;;;33.67;19.00;;;;;;;23.76;51.56;100525.13;5031025;28;20083;-47
2022/08/23 05:18:53;;;;;;;29.30;18.17;;;;;;;23.89;51.45;100525.88;5003874;28;20060;-49
2022/08/23 05:21:20;;;;;;;29.83;17.77;;;;;;;24.00;50.96;100525.91;5020268;28;20041;-47
2022/08/23 05:23:47;;;;;;;31.60;17.00;;;;;;;23.89;50.53;100488.69;5036614;28;20052;-48
2022/08/23 05:26:17;;;;;;;29.60;17.38;;;;;;;24.24;50.22;100529.34;5030512;28;20053;-52
2022/08/23 05:28:46;;;;;;;29.13;16.85;;;;;;;24.36;50.24;100530.22;5027716;28;20541;-50
2022/08/23 05:31:23;;;;;;;23.13;16.23;;;;;;;24.50;49.77;100537.97;5050001;28;20521;-49
2022/08/23 05:33:54;;;;;;;24.83;16.15;;;;;;;24.49;49.95;100523.00;5044906;28;20170;-51
2022/08/23 05:36:36;;;;;;;28.63;17.08;;;;;;;24.67;49.66;100534.81;5034989;28;20405;-47
2022/08/23 05:39:04;;;;;;;27.10;16.58;;;;;;;24.61;49.86;100513.19;5038917;28;20041;-48
2022/08/23 05:41:32;;;;;;;23.67;15.68;;;;;;;24.81;49.68;100536.38;5030600;28;20136;-49
2022/08/23 05:43:58;;;;;;;22.58;14.73;;;;;;;24.91;49.42;100539.19;5030606;28;20045;-50
2022/08/23 05:46:24;;;;;;;27.50;14.73;;;;;;;24.97;48.93;100530.69;5030124;28;20052;-49
2022/08/23 05:49:09;;;;;;;22.60;13.07;;;;;;;25.02;48.20;100539.19;5012598;28;20053;-52
2022/08/23 05:51:35;;;;;;;22.02;12.65;;;;;;;24.98;47.97;100516.44;5013403;28;20056;-50
2022/08/23 05:54:05;;;;;;;17.45;12.38;;;;;;;25.24;47.55;100539.97;5038516;28;20068;-51
2022/08/23 05:56:36;;;;;;;26.77;12.80;;;;;;;25.33;47.36;100539.19;5063053;28;20088;-53
2022/08/23 05:59:07;;;;;;;24.90;11.70;;;;;;;25.37;47.17;100538.97;5030095;28;20048;-52
2022/08/23 06:01:34;;;;;;;27.10;16.50;;;;;;;25.54;46.60;100546.41;5046205;28;20045;-49
2022/08/23 06:04:10;;;;;;;19.55;11.82;;;;;;;25.65;46.84;100551.69;5029963;28;20052;-49
2022/08/23 06:06:37;;;;;;;13.98;11.02;;;;;;;25.82;46.54;100550.28;5026948;28;20049;-51
2022/08/23 06:09:05;;;;;;;21.23;10.85;;;;;;;25.84;45.53;100529.72;5037452;28;20056;-49
2022/08/23 06:11:31;;;;;;;19.60;10.98;;;;;;;25.86;45.19;100543.72;5063943;28;20068;-51
2022/08/23 06:14:00;;;;;;;16.50;10.05;;;;;;;25.82;44.98;100528.97;5025310;28;20452;-51
2022/08/23 06:16:33;;;;;;;15.98;10.13;;;;;;;26.03;44.91;100560.00;5047261;28;20401;-51
2022/08/23 06:19:03;;;;;;;16.10;10.63;;;;;;;26.10;44.44;100555.00;5057076;28;20545;-50
2022/08/23 06:21:55;;;;;;;15.68;10.38;;;;;;;26.37;43.86;100560.66;5022836;28;20053;-51
2022/08/23 06:24:29;;;;;;;18.90;10.52;;;;;;;26.38;43.52;100548.19;5028034;28;20052;-50
2022/08/23 06:27:06;;;;;;;16.58;10.77;;;;;;;26.46;43.49;100543.00;5029725;28;20081;-52
2022/08/23 06:29:32;;;;;;;18.95;10.50;;;;;;;26.78;43.05;100573.06;5012526;28;20076;-50
2022/08/23 06:32:16;;;;;;;16.63;10.70;;;;;;;27.08;42.57;100571.34;5027817;28;20049;-49
2022/08/23 06:35:08;;;;;;;19.27;10.90;;;;;;;27.43;41.67;100574.38;5036814;28;20049;-59
2022/08/23 06:37:46;;;;;;;16.98;9.90;;;;;;;27.80;41.44;100571.88;5029310;28;20068;-53
2022/08/23 06:40:44;;;;;;;17.05;10.82;;;;;;;28.34;40.60;100576.63;5004867;28;20472;-52
2022/08/23 06:43:30;;;;;;;16.00;11.13;;;;;;;28.67;39.83;100575.28;5028522;28;20579;-46
2022/08/23 06:46:26;;;;;;;19.92;10.82;;;;;;;28.91;39.10;100572.94;5010852;28;20497;-44
2022/08/23 06:48:53;;;;;;;;;;;;;;;29.29;38.73;100584.41;5028948;28;20049;-45
2022/08/23 06:51:29;;;;;;;22.65;11.20;;;;;;;29.51;38.35;100575.97;5029416;28;19917;-47
2022/08/23 06:54:07;;;;;;;17.60;9.80;;;;;;;29.60;37.90;100583.09;5009036;28;20048;-46
2022/08/23 06:56:54;;;;;;;15.98;10.73;;;;;;;29.88;37.15;100581.19;5028375;28;20081;-47
2022/08/23 06:59:32;;;;;;;18.65;11.00;;;;;;;30.38;36.75;100585.94;5012862;28;20030;-51
2022/08/23 07:02:24;;;;;;;18.30;10.45;;;;;;;30.62;35.50;100562.78;5025859;28;20144;-47
2022/08/23 07:04:57;;;;;;;11.57;9.65;;;;;;;30.80;35.39;100586.88;5027344;28;20424;-49
2022/08/23 07:07:36;;;;;;;16.38;10.07;;;;;;;31.20;34.87;100578.16;5027195;28;20033;-50
2022/08/23 07:10:04;;;;;;;26.55;19.42;;;;;;;31.63;34.66;100587.00;5029281;28;20056;-46
2022/08/23 07:12:31;;;;;;;17.20;10.27;;;;;;;32.03;34.00;100587.03;5012740;28;20433;-47
2022/08/23 07:14:57;;;;;;;15.95;9.82;;;;;;;32.18;33.22;100592.59;5028803;28;20076;-46
2022/08/23 07:17:24;;;;;;;14.13;9.45;;;;;;;31.99;32.75;100574.91;5029962;28;20131;-46
2022/08/23 07:19:50;;;;;;;15.68;9.50;;;;;;;32.30;32.49;100591.22;5028592;28;20064;-44
2022/08/23 07:22:19;;;;;;;21.10;9.88;;;;;;;32.59;31.97;100591.53;5028887;28;20536;-45
2022/08/23 07:24:45;;;;;;;16.27;9.63;;;;;;;33.00;31.56;100588.69;5028568;28;20037;-46
2022/08/23 07:27:11;;;;;;;15.15;10.35;;;;;;;32.98;31.40;100574.53;5028487;28;20433;-47
2022/08/23 07:29:46;;;;;;;15.80;9.80;;;;;;;32.86;31.43;100586.75;5028952;28;20468;-48
2022/08/23 07:32:12;;;;;;;15.32;9.93;;;;;;;33.46;31.00;100581.56;5036811;28;20045;-47
2022/08/23 07:34:39;;;;;;;17.48;13.00;;;;;;;34.11;30.08;100568.44;5029392;28;20037;-44
2022/08/23 07:37:05;;;;;;;15.90;10.45;;;;;;;34.81;29.47;100586.94;5028413;28;20041;-47
2022/08/23 07:39:31;;;;;;;19.67;10.25;;;;;;;34.87;29.07;100591.63;5025692;28;20052;-49
2022/08/23 07:42:00;;;;;;;20.65;11.40;;;;;;;34.27;29.50;100589.91;5043666;28;20045;-46
2022/08/23 07:44:25;;;;;;;18.92;11.98;;;;;;;34.42;29.62;100590.75;5027642;28;20135;-47
2022/08/23 07:46:52;;;;;;;22.15;11.82;;;;;;;35.05;29.13;100591.22;5025944;28;20120;-48
2022/08/23 07:49:18;;;;;;;15.70;9.48;;;;;;;35.20;28.75;100573.13;5026891;28;20091;-49
2022/08/23 07:51:47;;;;;;;18.63;10.45;;;;;;;35.80;28.02;100588.97;5025018;28;20064;-48
2022/08/23 07:54:14;;;;;;;36.85;15.10;;;;;;;37.04;27.02;100585.50;5028418;28;20045;-48
2022/08/23 07:57:03;;;;;;;16.17;11.98;;;;;;;37.69;25.34;100587.59;5028192;28;20084;-49
2022/08/23 07:59:52;;;;;;;20.02;11.63;;;;;;;37.44;25.56;100593.78;5028320;28;20041;-50
2022/08/23 08:02:37;;;;;;;19.63;10.05;;;;;;;36.51;25.97;100582.50;5029370;28;20045;-49
2022/08/23 08:05:05;;;;;;;16.85;9.57;;;;;;;35.86;26.72;100595.47;5019996;28;20049;-47
2022/08/23 08:07:31;;;;;;;23.17;9.90;;;;;;;35.71;27.13;100590.16;5032789;28;20127;-47
2022/08/23 08:09:58;;;;;;;;;;;;;;;35.84;26.72;100578.63;5027575;28;20068;-47
2022/08/23 08:12:27;;;;;;;22.30;10.80;;;;;;;35.73;27.31;100590.81;5028848;28;20367;-45
2022/08/23 08:14:56;;;;;;;15.60;10.25;;;;;;;35.51;27.13;100587.22;5026967;28;20045;-45
2022/08/23 08:17:29;;;;;;;14.70;10.10;;;;;;;35.46;27.42;100584.25;5029153;28;20569;-48
2022/08/23 08:20:14;;;;;;;21.17;10.73;;;;;;;35.57;27.57;100577.50;5027878;28;20077;-49
2022/08/23 08:23:18;;;;;;;20.00;9.85;;;;;;;35.92;26.93;100589.28;5007783;28;20045;-45
2022/08/23 08:26:04;;;;;;;16.80;10.50;;;;;;;35.91;26.88;100582.19;4995654;28;20054;-47
2022/08/23 08:28:32;;;;;;;13.27;8.63;;;;;;;36.22;26.16;100588.09;5018924;28;20094;-52
2022/08/23 08:30:58;;;;;;;12.23;7.90;;;;;;;36.29;26.01;100570.03;5029822;28;20068;-48
2022/08/23 08:33:27;;;;;;;14.43;8.02;;;;;;;35.84;26.38;100573.19;5044323;28;20041;-50
2022/08/23 08:35:53;;;;;;;15.30;8.43;;;;;;;36.48;26.03;100572.03;5047454;28;20364;-45
2022/08/23 08:38:19;;;;;;;13.52;7.85;;;;;;;37.22;25.29;100583.06;5031041;28;20045;-44
2022/08/23 08:40:48;;;;;;;18.77;8.45;;;;;;;37.79;24.30;100580.94;5028911;28;20079;-43
2022/08/23 08:43:41;;;;;;;13.13;9.15;;;;;;;37.78;24.09;100566.53;5030893;28;20476;-47
2022/08/23 08:46:17;;;;;;;11.50;8.88;;;;;;;38.71;23.13;100576.28;5027020;28;20091;-45
2022/08/23 08:48:47;;;;;;;12.77;8.93;;;;;;;39.47;21.99;100584.53;4996996;28;20045;-50
2022/08/23 08:51:33;;;;;;;9.23;8.25;;;;;;;39.75;21.85;100589.59;5031990;28;20175;-48
2022/08/23 08:53:59;;;;;;;11.00;8.35;;;;;;;39.99;21.37;100582.53;5032506;28;20521;-50
2022/08/23 08:56:32;;;;;;;16.75;7.90;;;;;;;40.25;21.30;100568.69;5047832;28;20087;-48
2022/08/23 08:59:44;;;;;;;13.98;8.30;;;;;;;40.59;21.21;100589.06;5028885;28;20128;-46
2022/08/23 09:02:17;;;;;;;14.45;8.60;;;;;;;40.67;20.82;100588.00;5037591;28;20045;-45
2022/08/23 09:04:46;;;;;;;11.73;8.77;;;;;;;41.01;20.51;100557.31;5047796;28;20056;-47
2022/08/23 09:07:30;;;;;;;15.98;8.68;;;;;;;41.70;19.99;100580.53;5046565;28;20068;-46
2022/08/23 09:10:09;;;;;;;13.07;9.00;;;;;;;42.50;19.62;100575.41;5046820;28;20045;-44
2022/08/23 09:12:48;;;;;;;10.88;8.88;;;;;;;43.50;18.46;100590.34;5031606;28;20461;-61
2022/08/23 09:15:22;;;;;;;11.43;8.75;;;;;;;43.06;18.43;100586.47;5030241;28;20042;-61
2022/08/23 09:17:57;;;;;;;11.15;8.20;;;;;;;42.04;18.87;100568.00;5045486;28;20514;-60
2022/08/23 09:20:27;;;;;;;14.15;8.48;;;;;;;42.31;19.07;100579.31;5045616;28;20046;-59
2022/08/23 09:23:08;;;;;;;10.18;8.32;;;;;;;42.70;18.84;100570.38;5029308;28;20139;-60
2022/08/23 09:25:37;;;;;;;9.10;8.25;;;;;;;42.97;18.38;100560.53;5025496;28;20048;-59
2022/08/23 09:28:11;;;;;;;10.65;7.95;;;;;;;43.71;17.81;100577.81;5033961;28;20053;-60
2022/08/23 09:30:54;;;;;;;11.63;8.38;;;;;;;43.57;17.54;100570.19;5027839;28;20042;-60
2022/08/23 09:33:38;;;;;;;15.02;8.38;;;;;;;42.70;17.99;100580.50;5047531;28;20050;-59
2022/08/23 09:36:25;;;;;;;9.98;8.85;;;;;;;41.74;18.82;100568.91;5030877;28;20136;-58
2022/08/23 09:39:06;;;;;;;14.55;8.82;;;;;;;42.77;18.61;100570.22;5047488;28;20057;-57
2022/08/23 09:41:38;;;;;;;14.23;8.70;;;;;;;43.09;18.11;100566.81;5031965;28;20132;-57
2022/08/23 09:44:12;;;;;;;15.73;8.55;;;;;;;42.79;18.14;100568.09;5031742;28;20048;-58
2022/08/23 09:46:41;;;;;;;11.90;8.70;;;;;;;43.05;18.09;100540.97;5047345;28;20049;-58
2022/08/23 09:49:35;;;;;;;14.50;8.40;;;;;;;42.51;18.50;100561.47;5047060;28;20045;-59
2022/08/23 09:52:26;;;;;;;13.75;7.88;;;;;;;41.40;19.95;100558.72;5030534;28;20521;-58
2022/08/23 09:55:06;;;;;;;13.55;9.40;;;;;;;40.51;20.85;100554.75;5014846;28;20132;-58
2022/08/23 09:57:38;;;;;;;23.15;11.07;;;;;;;40.91;20.26;100548.84;5014629;28;20103;-58
2022/08/23 10:00:14;;;;;;;14.57;10.48;;;;;;;41.35;19.94;100556.66;5030283;28;20041;-57
2022/08/23 10:02:40;;;;;;;19.87;9.87;;;;;;;42.04;19.42;100536.03;5029650;28;20081;-58
2022/08/23 10:05:14;;;;;;;13.68;9.07;;;;;;;42.66;18.69;100555.47;5046831;28;20080;-58
2022/08/23 10:07:43;;;;;;;11.75;8.65;;;;;;;42.58;18.47;100562.16;5046772;28;20038;-59
2022/08/23 10:10:19;;;;;;;13.73;8.32;;;;;;;42.76;18.25;100555.75;5046775;28;20053;-58
2022/08/23 10:12:45;;;;;;;11.73;8.25;;;;;;;43.41;17.68;100578.09;5046623;28;20499;-60
2022/08/23 10:15:13;;;;;;;14.63;8.48;;;;;;;42.34;18.12;100576.97;5046580;28;20140;-58
2022/08/23 10:18:06;;;;;;;13.10;8.48;;;;;;;41.65;19.15;100556.66;5029056;28;20045;-59
2022/08/23 10:20:51;;;;;;;8.63;7.47;;;;;;;41.73;18.86;100555.47;4995327;28;20136;-59
2022/08/23 10:23:16;;;;;;;9.10;8.07;;;;;;;41.73;18.41;100571.84;5030862;28;20045;-57
2022/08/23 10:25:53;;;;;;;9.80;7.53;;;;;;;41.29;19.61;100564.97;5046669;28;20041;-58
2022/08/23 10:31:14;;;;;;;12.40;7.65;;;;;;;40.57;19.74;100551.13;5046334;28;20045;-58
2022/08/23 10:34:05;;;;;;;11.55;7.72;;;;;;;40.95;20.15;100553.63;5013319;28;20045;-59
2022/08/23 10:36:49;;;;;;;9.10;7.65;;;;;;;40.82;19.69;100559.25;5029579;28;20421;-58
2022/08/23 10:39:24;;;;;;;10.82;7.85;;;;;;;40.33;20.36;100551.19;5029518;28;20044;-59
2022/08/23 10:42:02;;;;;;;8.52;7.25;;;;;;;40.41;20.29;100557.16;5030955;28;20160;-59
2022/08/23 10:44:34;;;;;;;12.77;7.53;;;;;;;40.05;20.34;100546.19;5029498;28;20132;-59
2022/08/23 10:47:33;;;;;;;7.82;6.97;;;;;;;39.56;21.42;100550.56;5029240;28;20049;-59
2022/08/23 10:50:11;;;;;;;10.73;8.05;;;;;;;38.28;22.24;100543.31;5030573;28;20505;-59
2022/08/23 10:52:49;;;;;;;9.07;7.97;;;;;;;37.74;22.60;100544.38;5029323;28;20119;-58
2022/08/23 10:55:53;;;;;;;8.50;7.00;;;;;;;37.59;23.00;100540.19;5029216;28;20041;-59
2022/08/23 10:58:23;;;;;;;9.93;7.47;;;;;;;37.80;22.84;100534.56;5015851;28;20099;-59
2022/08/23 11:00:50;;;;;;;11.40;7.70;;;;;;;37.54;23.06;100524.53;5030371;28;20061;-59
2022/08/23 11:03:34;;;;;;;11.15;8.05;;;;;;;38.39;22.38;100534.50;5012521;28;20037;-58
2022/08/23 11:06:34;;;;;;;8.80;7.78;;;;;;;39.80;20.96;100552.50;5012797;28;20140;-58
2022/08/23 11:09:18;;;;;;;13.23;7.68;;;;;;;39.05;20.76;100550.63;5026802;28;20417;-58
2022/08/23 11:11:50;;;;;;;9.80;7.57;;;;;;;38.81;21.13;100535.88;5029206;28;20513;-58
2022/08/23 11:14:34;;;;;;;14.77;7.47;;;;;;;37.78;21.88;100535.81;5028667;28;20060;-58
2022/08/23 11:17:02;;;;;;;8.45;7.65;;;;;;;39.35;21.01;100557.19;5028900;28;20506;-58
2022/08/23 11:19:52;;;;;;;12.00;7.85;;;;;;;39.21;20.70;100550.13;5028955;28;20049;-58
2022/08/23 11:22:21;;;;;;;13.50;7.38;;;;;;;40.00;20.02;100549.59;5045267;28;20421;-58
2022/08/23 11:24:59;;;;;;;11.35;7.07;;;;;;;39.68;20.07;100539.78;5030028;28;20041;-58
2022/08/23 11:27:34;;;;;;;9.40;6.95;;;;;;;38.09;21.63;100531.44;5029048;28;20041;-58
2022/08/23 11:30:31;;;;;;;10.77;7.38;;;;;;;38.19;21.99;100533.72;5030076;28;20075;-58
2022/08/23 11:33:22;;;;;;;14.35;8.85;;;;;;;39.72;20.40;100530.97;5029988;28;20034;-58
2022/08/23 11:35:54;;;;;;;6.47;5.82;;;;;;;39.70;20.08;100543.13;5028766;28;20183;-58
2022/08/23 11:38:46;;;;;;;7.93;6.63;;;;;;;38.56;20.46;100537.63;5045197;28;20513;-58
2022/08/23 11:41:33;;;;;;;7.13;6.43;;;;;;;38.55;20.84;100528.66;5012119;28;20045;-59
2022/08/23 11:44:05;;;;;;;6.68;5.97;;;;;;;38.55;21.19;100535.97;5012396;28;20517;-59
2022/08/23 11:46:33;;;;;;;6.70;5.75;;;;;;;38.17;21.96;100541.25;5028561;28;20041;-60
2022/08/23 11:49:25;;;;;;;10.30;6.38;;;;;;;38.05;21.25;100530.19;5028801;28;20045;-58
2022/08/23 11:52:14;;;;;;;8.57;6.47;;;;;;;39.56;19.98;100541.56;5029330;28;20065;-58
2022/08/23 11:54:46;;;;;;;7.32;6.57;;;;;;;40.88;18.78;100532.97;5028502;28;20513;-58